Swoope, Virginia
Current Conditions -  °F | °C
As of 3:15 PM on Thursday 30 Oct 2014 (Local Time) from KW13 Reporting Station
Scattered Clouds Scattered Clouds  
Wind Chill: 52°   Ceiling: Unl
Heat Index: 52°   Visibility: 10mi
Dew Point: 36°   Wind: 8mph
Humidity: 53%   Direction: 360°N
Pressure: 30.02"   Gusts: NA
Location:  38.16°N, 79.21°W
Report Text: KW13 301915Z AUTO 36007KT 10SM SCT044 11/02 A3002 RMK AO1 T01120020
Loading
Personal Weather Stations






























Interactive Weather Map
Tropical Storm Tracking
New forecast layout! Learn more

10-Day Weather Forecast

Advertisements
Track Severe Weather on mobile